createdAt,value
2022-12-01T00:00:14.900Z,17.38
2022-12-01T00:02:41.143Z,17.42
2022-12-01T00:05:07.311Z,18.45
2022-12-01T00:07:33.458Z,17.02
2022-12-01T00:09:59.651Z,17.83
2022-12-01T00:12:25.786Z,18.67
2022-12-01T00:14:51.892Z,19.80
2022-12-01T00:17:18.027Z,20.25
2022-12-01T00:19:44.190Z,19.65
2022-12-01T00:22:10.314Z,19.75
2022-12-01T00:24:36.435Z,19.95
2022-12-01T00:27:02.556Z,19.95
2022-12-01T00:29:28.674Z,19.98
2022-12-01T00:31:54.850Z,19.67
2022-12-01T00:34:21.077Z,20.45
2022-12-01T00:36:47.206Z,19.30
2022-12-01T00:39:13.324Z,20.25
2022-12-01T00:41:39.435Z,19.52
2022-12-01T00:44:05.550Z,20.52
2022-12-01T00:46:31.721Z,20.00
2022-12-01T00:48:57.898Z,18.95
2022-12-01T00:51:24.054Z,20.42
2022-12-01T00:53:50.191Z,18.48
2022-12-01T00:56:16.317Z,19.15
2022-12-01T00:58:42.433Z,18.55
2022-12-01T01:01:08.589Z,18.80
2022-12-01T01:03:34.747Z,19.58
2022-12-01T01:06:00.876Z,18.17
2022-12-01T01:08:27.034Z,18.73
2022-12-01T01:10:53.154Z,17.83
2022-12-01T01:13:19.262Z,19.00
2022-12-01T01:15:45.394Z,18.58
2022-12-01T01:18:11.496Z,18.65
2022-12-01T01:20:37.596Z,16.98
2022-12-01T01:23:03.710Z,16.83
2022-12-01T01:25:29.817Z,16.67
2022-12-01T01:27:55.922Z,15.73
2022-12-01T01:30:22.099Z,16.02
2022-12-01T01:32:48.431Z,15.80
2022-12-01T01:35:14.556Z,17.38
2022-12-01T01:37:40.813Z,16.65
2022-12-01T01:40:06.999Z,16.80
2022-12-01T01:42:33.147Z,15.52
2022-12-01T01:44:59.256Z,15.20
2022-12-01T01:47:25.388Z,17.05
2022-12-01T01:49:51.767Z,16.23
2022-12-01T01:52:17.984Z,16.25
2022-12-01T01:54:44.108Z,16.75
2022-12-01T01:57:10.249Z,17.08
2022-12-01T01:59:36.361Z,15.93
2022-12-01T02:02:02.520Z,16.70
2022-12-01T02:04:28.705Z,16.35
2022-12-01T02:06:54.818Z,16.88
2022-12-01T02:09:20.948Z,16.48
2022-12-01T02:11:47.105Z,17.40
2022-12-01T02:14:13.269Z,17.27
2022-12-01T02:16:39.451Z,16.80
2022-12-01T02:19:05.612Z,17.45
2022-12-01T02:21:31.724Z,17.73
2022-12-01T02:23:57.855Z,17.17
2022-12-01T02:26:24.025Z,17.85
2022-12-01T02:28:50.128Z,18.13
2022-12-01T02:31:16.352Z,17.58
2022-12-01T02:33:42.497Z,17.33
2022-12-01T02:36:08.668Z,19.02
2022-12-01T02:38:34.789Z,18.25
2022-12-01T02:41:00.885Z,17.75
2022-12-01T02:43:27.097Z,18.27
2022-12-01T02:45:53.258Z,20.35
2022-12-01T02:48:19.517Z,20.13
2022-12-01T02:50:45.694Z,19.50
2022-12-01T02:53:11.797Z,20.58
2022-12-01T02:55:37.918Z,19.50
2022-12-01T02:58:04.024Z,20.33
2022-12-01T03:00:30.144Z,20.88
2022-12-01T03:02:56.375Z,20.50
2022-12-01T03:05:22.524Z,20.52
2022-12-01T03:07:48.687Z,21.38
2022-12-01T03:10:14.857Z,20.60
2022-12-01T03:12:41.006Z,20.63
2022-12-01T03:15:07.094Z,19.50
2022-12-01T03:17:33.230Z,21.30
2022-12-01T03:19:59.351Z,21.35
2022-12-01T03:22:25.451Z,20.00
2022-12-01T03:24:51.565Z,20.58
2022-12-01T03:27:17.683Z,20.98
2022-12-01T03:29:43.861Z,20.38
2022-12-01T03:32:09.958Z,21.65
2022-12-01T03:34:36.092Z,21.58
2022-12-01T03:37:02.265Z,20.27
2022-12-01T03:39:28.378Z,20.58
2022-12-01T03:41:54.510Z,21.45
2022-12-01T03:44:20.636Z,21.52
2022-12-01T03:46:46.773Z,20.35
2022-12-01T03:49:12.911Z,19.83
2022-12-01T03:51:39.190Z,19.98
2022-12-01T03:54:05.288Z,20.70
2022-12-01T03:56:31.448Z,19.85
2022-12-01T03:58:57.552Z,21.38
2022-12-01T04:01:23.684Z,20.95
2022-12-01T04:03:49.807Z,21.30
2022-12-01T04:06:15.930Z,21.05
2022-12-01T04:08:42.052Z,21.42
2022-12-01T04:11:08.180Z,20.33
2022-12-01T04:13:34.312Z,20.20
2022-12-01T04:16:00.548Z,19.85
2022-12-01T04:18:26.733Z,20.33
2022-12-01T04:20:52.834Z,20.45
2022-12-01T04:23:18.988Z,19.33
2022-12-01T04:25:45.114Z,20.15
2022-12-01T04:28:11.202Z,19.58
2022-12-01T04:30:37.337Z,20.15
2022-12-01T04:33:03.488Z,20.80
2022-12-01T04:35:29.607Z,21.00
2022-12-01T04:37:55.716Z,20.88
2022-12-01T04:40:21.859Z,20.40
2022-12-01T04:42:47.962Z,19.48
2022-12-01T04:45:14.069Z,19.83
2022-12-01T04:47:40.218Z,19.20
2022-12-01T04:50:06.308Z,21.25
2022-12-01T04:52:35.439Z,21.42
2022-12-01T04:55:01.754Z,20.40
2022-12-01T04:57:27.880Z,20.23
2022-12-01T04:59:53.979Z,20.83
2022-12-01T05:02:20.126Z,19.73
2022-12-01T05:04:46.355Z,20.60
2022-12-01T05:07:12.470Z,19.77
2022-12-01T05:09:38.597Z,20.20
2022-12-01T05:12:04.743Z,19.70
2022-12-01T05:14:30.844Z,19.80
2022-12-01T05:16:56.972Z,20.80
2022-12-01T05:19:23.155Z,20.20
2022-12-01T05:21:49.281Z,18.88
2022-12-01T05:24:15.404Z,18.55
2022-12-01T05:26:41.536Z,18.23
2022-12-01T05:29:07.685Z,18.50
2022-12-01T05:31:33.890Z,18.17
2022-12-01T05:34:00.042Z,17.38
2022-12-01T05:36:26.182Z,18.38
2022-12-01T05:38:52.290Z,18.58
2022-12-01T05:41:18.457Z,17.30
2022-12-01T05:43:44.604Z,18.10
2022-12-01T05:46:10.867Z,18.85
2022-12-01T05:48:37.086Z,18.33
2022-12-01T05:51:03.221Z,17.38
2022-12-01T05:53:29.333Z,19.77
2022-12-01T05:55:55.459Z,17.90
2022-12-01T05:58:21.621Z,19.17
2022-12-01T06:00:47.776Z,19.70
2022-12-01T06:03:13.934Z,18.35
2022-12-01T06:05:40.077Z,18.70
2022-12-01T06:08:06.209Z,18.70
2022-12-01T06:10:32.374Z,18.17
2022-12-01T06:12:58.525Z,19.65
2022-12-01T06:15:24.687Z,19.42
2022-12-01T06:17:50.837Z,18.23
2022-12-01T06:20:17.831Z,18.45
2022-12-01T06:22:43.983Z,17.20
2022-12-01T06:25:10.119Z,18.10
2022-12-01T06:27:36.226Z,16.80
2022-12-01T06:30:02.349Z,18.38
2022-12-01T06:32:28.462Z,18.77
2022-12-01T06:34:54.562Z,18.20
2022-12-01T06:37:20.693Z,18.00
2022-12-01T06:39:47.061Z,18.73
2022-12-01T06:42:13.397Z,18.20
2022-12-01T06:44:39.539Z,18.75
2022-12-01T06:47:05.697Z,17.35
2022-12-01T06:49:31.841Z,17.80
2022-12-01T06:51:59.898Z,17.50
2022-12-01T06:54:27.163Z,17.98
2022-12-01T06:56:53.316Z,16.77
2022-12-01T06:59:19.637Z,16.40
2022-12-01T07:01:45.998Z,17.10
2022-12-01T07:04:12.127Z,16.85
2022-12-01T07:06:38.280Z,17.67
2022-12-01T07:09:04.647Z,17.90
2022-12-01T07:11:30.939Z,17.77
2022-12-01T07:13:57.086Z,18.17
2022-12-01T07:16:23.292Z,16.70
2022-12-01T07:18:49.478Z,17.80
2022-12-01T07:21:15.584Z,17.38
2022-12-01T07:23:41.690Z,16.70
2022-12-01T07:26:07.807Z,16.45
2022-12-01T07:28:33.924Z,17.90
2022-12-01T07:31:00.149Z,16.90
2022-12-01T07:33:26.377Z,18.02
2022-12-01T07:35:52.511Z,18.52
2022-12-01T07:38:22.129Z,17.05
2022-12-01T07:40:48.582Z,18.60
2022-12-01T07:43:14.746Z,19.35
2022-12-01T07:45:40.938Z,17.95
2022-12-01T07:48:07.107Z,18.45
2022-12-01T07:50:33.243Z,18.73
2022-12-01T07:52:59.356Z,18.65
2022-12-01T07:55:25.498Z,17.95
2022-12-01T07:57:51.602Z,17.20
2022-12-01T08:00:17.729Z,17.40
2022-12-01T08:02:43.922Z,16.40
2022-12-01T08:05:10.074Z,17.40
2022-12-01T08:07:36.275Z,15.07
2022-12-01T08:10:02.431Z,15.35
2022-12-01T08:12:28.530Z,15.75
2022-12-01T08:14:54.669Z,16.20
2022-12-01T08:17:20.780Z,15.98
2022-12-01T08:19:47.175Z,16.02
2022-12-01T08:22:13.467Z,15.48
2022-12-01T08:24:39.627Z,16.48
2022-12-01T08:27:05.810Z,16.38
2022-12-01T08:29:31.974Z,16.20
2022-12-01T08:31:58.109Z,16.42
2022-12-01T08:34:24.244Z,16.25
2022-12-01T08:36:50.364Z,15.65
2022-12-01T08:39:16.476Z,16.73
2022-12-01T08:41:42.586Z,16.73
2022-12-01T08:44:08.724Z,15.50
2022-12-01T08:46:34.895Z,15.13
2022-12-01T08:49:01.044Z,15.00
2022-12-01T08:51:27.177Z,15.65
2022-12-01T08:53:53.311Z,16.50
2022-12-01T08:56:19.464Z,15.82
2022-12-01T08:58:45.652Z,14.07
2022-12-01T09:01:12.885Z,15.40
2022-12-01T09:03:39.010Z,15.80
2022-12-01T09:06:05.118Z,16.33
2022-12-01T09:08:31.240Z,16.80
2022-12-01T09:10:57.367Z,16.02
2022-12-01T09:13:23.509Z,16.35
2022-12-01T09:15:49.677Z,15.63
2022-12-01T09:18:15.836Z,16.50
2022-12-01T09:20:41.964Z,16.40
2022-12-01T09:23:08.090Z,15.45
2022-12-01T09:25:34.205Z,14.23
2022-12-01T09:28:00.349Z,15.15
2022-12-01T09:30:26.553Z,16.45
2022-12-01T09:32:52.735Z,15.43
2022-12-01T09:35:23.273Z,14.57
2022-12-01T09:37:49.773Z,14.70
2022-12-01T09:40:15.907Z,17.08
2022-12-01T09:42:42.026Z,14.77
2022-12-01T09:45:08.278Z,16.17
2022-12-01T09:47:34.419Z,15.57
2022-12-01T09:50:00.532Z,15.07
2022-12-01T09:52:26.708Z,14.60
2022-12-01T09:54:52.821Z,14.38
2022-12-01T09:57:18.973Z,14.02
2022-12-01T09:59:45.101Z,14.48
2022-12-01T10:02:11.291Z,13.98
2022-12-01T10:04:37.430Z,14.77
2022-12-01T10:07:03.599Z,14.18
2022-12-01T10:09:29.709Z,15.27
2022-12-01T10:11:55.843Z,14.73
2022-12-01T10:14:21.951Z,14.48
2022-12-01T10:16:48.079Z,14.63
2022-12-01T10:19:14.199Z,13.80
2022-12-01T10:21:40.328Z,14.60
2022-12-01T10:24:06.442Z,14.75
2022-12-01T10:26:32.581Z,14.80
2022-12-01T10:28:58.723Z,14.07
2022-12-01T10:31:24.945Z,14.65
2022-12-01T10:33:51.119Z,14.55
2022-12-01T10:36:17.224Z,15.15
2022-12-01T10:38:43.365Z,14.70
2022-12-01T10:41:09.478Z,14.75
2022-12-01T10:43:35.630Z,14.93
2022-12-01T10:46:01.762Z,16.13
2022-12-01T10:48:27.868Z,14.85
2022-12-01T10:50:54.053Z,16.30
2022-12-01T10:53:20.164Z,15.75
2022-12-01T10:55:48.112Z,14.73
2022-12-01T10:58:14.388Z,15.27
2022-12-01T11:00:59.131Z,15.90
2022-12-01T11:03:26.278Z,15.48
2022-12-01T11:05:52.579Z,13.88
2022-12-01T11:08:18.719Z,14.02
2022-12-01T11:10:44.811Z,14.55
2022-12-01T11:13:10.939Z,13.63
2022-12-01T11:15:37.084Z,14.55
2022-12-01T11:18:03.179Z,13.52
2022-12-01T11:20:29.370Z,13.10
2022-12-01T11:22:55.503Z,14.88
2022-12-01T11:25:21.708Z,14.38
2022-12-01T11:27:47.850Z,13.98
2022-12-01T11:30:14.140Z,15.30
2022-12-01T11:32:40.295Z,15.45
2022-12-01T11:35:06.413Z,15.32
2022-12-01T11:37:32.543Z,14.90
2022-12-01T11:39:58.653Z,14.45
2022-12-01T11:42:24.784Z,13.38
2022-12-01T11:44:52.043Z,15.27
2022-12-01T11:47:23.632Z,14.95
2022-12-01T11:49:50.920Z,14.52
2022-12-01T11:52:17.129Z,15.20
2022-12-01T11:54:43.548Z,13.77
2022-12-01T11:58:12.587Z,15.13
2022-12-01T11:59:55.935Z,14.40
2022-12-01T12:02:22.088Z,14.95
2022-12-01T12:04:48.257Z,14.57
2022-12-01T12:07:14.363Z,13.52
2022-12-01T12:09:45.092Z,14.15
2022-12-01T12:12:11.482Z,14.15
2022-12-01T12:14:37.584Z,13.95
2022-12-01T12:17:03.728Z,13.40
2022-12-01T12:19:34.326Z,14.55
2022-12-01T12:22:11.539Z,13.68
2022-12-01T12:24:37.636Z,13.90
2022-12-01T12:27:03.746Z,15.40
2022-12-01T12:29:29.852Z,14.00
2022-12-01T12:31:55.991Z,13.95
2022-12-01T12:34:22.186Z,12.73
2022-12-01T12:36:48.302Z,13.70
2022-12-01T12:39:16.759Z,13.25
2022-12-01T12:41:43.264Z,13.23
2022-12-01T12:44:09.378Z,14.77
2022-12-01T12:46:35.589Z,13.82
2022-12-01T12:49:19.344Z,13.40
2022-12-01T12:51:46.485Z,13.70
2022-12-01T12:54:12.694Z,12.77
2022-12-01T12:56:38.857Z,13.43
2022-12-01T12:59:05.027Z,13.02
2022-12-01T13:01:31.169Z,11.82
2022-12-01T13:03:57.390Z,12.75
2022-12-01T13:06:23.510Z,13.40
2022-12-01T13:08:49.640Z,12.85
2022-12-01T13:11:15.748Z,14.48
2022-12-01T13:13:41.868Z,12.73
2022-12-01T13:16:07.982Z,12.88
2022-12-01T13:18:34.131Z,14.45
2022-12-01T13:21:00.258Z,13.18
2022-12-01T13:23:26.357Z,13.18
2022-12-01T13:25:52.514Z,13.70
2022-12-01T13:28:18.781Z,12.68
2022-12-01T13:30:45.040Z,13.35
2022-12-01T13:33:11.209Z,12.63
2022-12-01T13:35:37.308Z,12.82
2022-12-01T13:38:03.446Z,13.32
2022-12-01T13:40:29.575Z,13.85
2022-12-01T13:42:55.750Z,15.43
2022-12-01T13:45:21.917Z,14.23
2022-12-01T13:47:48.025Z,12.82
2022-12-01T13:50:14.192Z,13.68
2022-12-01T13:52:40.330Z,13.93
2022-12-01T13:55:06.467Z,13.68
2022-12-01T13:57:32.600Z,13.23
2022-12-01T13:59:58.718Z,13.35
2022-12-01T14:02:25.014Z,14.45
2022-12-01T14:04:51.513Z,14.00
2022-12-01T14:07:17.765Z,13.32
2022-12-01T14:09:43.903Z,12.85
2022-12-01T14:12:10.007Z,13.43
2022-12-01T14:14:36.181Z,12.68
2022-12-01T14:17:02.397Z,13.55
2022-12-01T14:19:28.526Z,13.38
2022-12-01T14:21:54.685Z,13.52
2022-12-01T14:24:20.818Z,13.05
2022-12-01T14:26:46.973Z,14.48
2022-12-01T14:29:13.100Z,13.15
2022-12-01T14:31:39.283Z,13.70
2022-12-01T14:34:05.489Z,13.68
2022-12-01T14:36:31.685Z,13.80
2022-12-01T14:38:57.835Z,14.80
2022-12-01T14:41:23.974Z,12.70
2022-12-01T14:43:50.110Z,13.52
2022-12-01T14:46:16.534Z,13.10
2022-12-01T14:48:42.664Z,13.90
2022-12-01T14:51:08.791Z,13.60
2022-12-01T14:53:34.921Z,13.75
2022-12-01T14:56:01.039Z,13.15
2022-12-01T14:58:27.171Z,13.45
2022-12-01T15:00:53.312Z,13.13
2022-12-01T15:03:19.544Z,12.88
2022-12-01T15:05:45.681Z,12.13
2022-12-01T15:08:39.646Z,12.35
2022-12-01T15:10:57.901Z,12.38
2022-12-01T15:13:24.077Z,13.07
2022-12-01T15:15:50.181Z,13.27
2022-12-01T15:18:16.336Z,12.60
2022-12-01T15:20:47.576Z,12.73
2022-12-01T15:23:13.999Z,12.80
2022-12-01T15:25:40.092Z,12.82
2022-12-01T15:28:06.238Z,14.23
2022-12-01T15:30:32.333Z,12.35
2022-12-01T15:32:58.483Z,13.23
2022-12-01T15:35:24.596Z,12.52
2022-12-01T15:37:50.742Z,13.18
2022-12-01T15:43:03.015Z,12.98
2022-12-01T15:45:29.217Z,13.25
2022-12-01T15:47:55.400Z,13.48
2022-12-01T15:50:21.540Z,12.88
2022-12-01T15:52:47.658Z,13.07
2022-12-01T15:55:13.757Z,13.98
2022-12-01T15:57:39.884Z,13.27
2022-12-01T16:00:06.060Z,14.55
2022-12-01T16:02:32.272Z,13.88
2022-12-01T16:04:58.515Z,13.85
2022-12-01T16:07:25.113Z,13.68
2022-12-01T16:09:52.508Z,14.02
2022-12-01T16:12:18.643Z,14.18
2022-12-01T16:14:44.785Z,13.15
2022-12-01T16:17:11.127Z,13.05
2022-12-01T16:19:37.376Z,13.13
2022-12-01T16:22:03.596Z,13.07
2022-12-01T16:24:29.731Z,12.65
2022-12-01T16:26:55.866Z,13.82
2022-12-01T16:29:21.991Z,13.27
2022-12-01T16:32:12.728Z,13.05
2022-12-01T16:34:45.902Z,13.55
2022-12-01T16:37:12.790Z,14.25
2022-12-01T16:39:39.025Z,13.60
2022-12-01T16:42:05.252Z,14.13
2022-12-01T16:44:31.416Z,13.68
2022-12-01T16:46:57.568Z,13.93
2022-12-01T16:49:23.700Z,14.07
2022-12-01T16:51:55.800Z,13.88
2022-12-01T16:54:23.119Z,13.87
2022-12-01T16:56:49.257Z,14.60
2022-12-01T16:59:15.409Z,14.98
2022-12-01T17:01:41.615Z,14.18
2022-12-01T17:04:08.029Z,14.85
2022-12-01T17:06:34.209Z,13.80
2022-12-01T17:09:00.345Z,13.25
2022-12-01T17:11:26.497Z,13.57
2022-12-01T17:13:52.624Z,14.07
2022-12-01T17:16:19.065Z,14.35
2022-12-01T17:18:45.343Z,14.35
2022-12-01T17:21:11.537Z,14.38
2022-12-01T17:23:37.659Z,15.32
2022-12-01T17:26:03.769Z,14.55
2022-12-01T17:28:29.896Z,13.57
2022-12-01T17:30:56.128Z,13.77
2022-12-01T17:33:22.261Z,13.70
2022-12-01T17:35:48.410Z,13.70
2022-12-01T17:38:14.523Z,13.27
2022-12-01T17:40:40.634Z,13.65
2022-12-01T17:43:06.760Z,13.07
2022-12-01T17:45:32.940Z,12.90
2022-12-01T17:47:59.070Z,13.38
2022-12-01T17:50:25.198Z,12.32
2022-12-01T17:52:51.347Z,12.77
2022-12-01T17:55:17.482Z,12.68
2022-12-01T17:57:43.626Z,12.88
2022-12-01T18:00:09.768Z,13.43
2022-12-01T18:02:35.958Z,13.48
2022-12-01T18:05:02.163Z,12.55
2022-12-01T18:07:28.381Z,13.30
2022-12-01T18:09:54.705Z,13.02
2022-12-01T18:12:20.827Z,13.52
2022-12-01T18:14:47.205Z,13.02
2022-12-01T18:17:13.536Z,14.90
2022-12-01T18:19:39.641Z,15.00
2022-12-01T18:22:05.771Z,12.98
2022-12-01T18:24:31.889Z,14.35
2022-12-01T18:26:58.034Z,12.63
2022-12-01T18:29:24.174Z,13.57
2022-12-01T18:31:50.350Z,13.35
2022-12-01T18:34:16.508Z,13.50
2022-12-01T18:36:42.641Z,13.57
2022-12-01T18:39:08.775Z,13.90
2022-12-01T18:41:34.899Z,13.15
2022-12-01T18:44:01.046Z,15.32
2022-12-01T18:46:27.290Z,12.63
2022-12-01T18:48:53.608Z,13.90
2022-12-01T18:51:19.740Z,14.27
2022-12-01T18:53:45.902Z,14.07
2022-12-01T18:56:12.238Z,14.07
2022-12-01T18:58:38.388Z,14.07
2022-12-01T19:01:04.545Z,14.57
2022-12-01T19:03:30.712Z,14.75
2022-12-01T19:05:56.855Z,13.40
2022-12-01T19:08:23.017Z,13.95
2022-12-01T19:10:49.178Z,13.13
2022-12-01T19:13:15.314Z,14.07
2022-12-01T19:15:41.449Z,14.52
2022-12-01T19:18:07.616Z,13.68
2022-12-01T19:20:33.757Z,14.45
2022-12-01T19:23:00.138Z,13.13
2022-12-01T19:25:26.268Z,13.90
2022-12-01T19:27:52.404Z,14.05
2022-12-01T19:30:18.512Z,13.95
2022-12-01T19:32:44.881Z,13.77
2022-12-01T19:35:11.011Z,13.30
2022-12-01T19:37:37.115Z,13.38
2022-12-01T19:40:03.265Z,14.27
2022-12-01T19:42:29.520Z,13.35
2022-12-01T19:44:55.619Z,13.35
2022-12-01T19:47:22.510Z,13.38
2022-12-01T19:49:48.804Z,14.63
2022-12-01T19:52:14.928Z,14.35
2022-12-01T19:54:41.040Z,14.40
2022-12-01T19:57:07.229Z,13.77
2022-12-01T19:59:33.345Z,15.52
2022-12-01T20:01:59.519Z,15.27
2022-12-01T20:04:25.731Z,15.25
2022-12-01T20:06:51.837Z,14.75
2022-12-01T20:09:17.965Z,15.48
2022-12-01T20:11:44.085Z,14.15
2022-12-01T20:14:10.308Z,13.45
2022-12-01T20:16:36.493Z,14.32
2022-12-01T20:19:02.753Z,14.00
2022-12-01T20:21:28.904Z,14.32
2022-12-01T20:23:55.041Z,13.70
2022-12-01T20:26:23.016Z,14.88
2022-12-01T20:28:52.369Z,13.75
2022-12-01T20:31:18.556Z,14.68
2022-12-01T20:33:44.700Z,14.18
2022-12-01T20:36:10.855Z,13.77
2022-12-01T20:38:36.998Z,15.15
2022-12-01T20:41:03.150Z,15.25
2022-12-01T20:43:29.327Z,14.20
2022-12-01T20:45:55.534Z,14.48
2022-12-01T20:48:21.733Z,14.05
2022-12-01T20:50:47.872Z,14.88
2022-12-01T20:53:13.972Z,14.00
2022-12-01T20:55:40.120Z,13.88
2022-12-01T20:58:06.252Z,14.52
2022-12-01T21:00:32.399Z,15.07
2022-12-01T21:02:58.567Z,14.68
2022-12-01T21:05:24.675Z,15.00
2022-12-01T21:07:50.862Z,13.80
2022-12-01T21:10:19.969Z,15.35
2022-12-01T21:12:46.502Z,14.38
2022-12-01T21:15:12.628Z,15.00
2022-12-01T21:17:38.736Z,15.38
2022-12-01T21:20:04.871Z,14.88
2022-12-01T21:22:30.979Z,14.75
2022-12-01T21:24:57.110Z,16.90
2022-12-01T21:27:23.231Z,13.73
2022-12-01T21:29:49.385Z,14.98
2022-12-01T21:32:15.539Z,14.32
2022-12-01T21:34:41.745Z,14.95
2022-12-01T21:37:07.890Z,14.75
2022-12-01T21:39:34.039Z,15.13
2022-12-01T21:42:00.151Z,14.55
2022-12-01T21:44:26.278Z,15.50
2022-12-01T21:46:52.427Z,14.35
2022-12-01T21:49:18.553Z,14.38
2022-12-01T21:51:44.660Z,15.70
2022-12-01T21:54:10.775Z,15.18
2022-12-01T21:56:36.887Z,14.48
2022-12-01T21:59:03.001Z,14.88
2022-12-01T22:01:29.190Z,15.52
2022-12-01T22:04:00.552Z,13.85
2022-12-01T22:06:30.393Z,14.68
2022-12-01T22:08:56.989Z,14.35
2022-12-01T22:11:23.091Z,13.93
2022-12-01T22:13:49.207Z,15.35
2022-12-01T22:16:15.350Z,15.20
2022-12-01T22:18:41.500Z,15.98
2022-12-01T22:21:07.625Z,14.48
2022-12-01T22:23:33.734Z,14.85
2022-12-01T22:25:59.967Z,14.38
2022-12-01T22:28:26.091Z,15.20
2022-12-01T22:30:52.297Z,15.32
2022-12-01T22:33:18.483Z,15.32
2022-12-01T22:35:44.655Z,16.83
2022-12-01T22:38:10.820Z,16.27
2022-12-01T22:40:36.976Z,15.32
2022-12-01T22:43:03.103Z,15.68
2022-12-01T22:45:29.210Z,15.05
2022-12-01T22:47:55.327Z,15.52
2022-12-01T22:50:21.449Z,15.77
2022-12-01T22:52:47.568Z,15.23
2022-12-01T22:55:13.671Z,16.30
2022-12-01T22:57:39.789Z,15.20
2022-12-01T23:00:08.145Z,15.52
2022-12-01T23:02:34.482Z,15.93
2022-12-01T23:05:00.673Z,15.85
2022-12-01T23:07:26.814Z,16.20
2022-12-01T23:09:52.974Z,15.93
2022-12-01T23:12:19.104Z,14.25
2022-12-01T23:14:45.233Z,15.98
2022-12-01T23:17:11.336Z,16.05
2022-12-01T23:19:37.447Z,15.60
2022-12-01T23:22:03.632Z,15.40
2022-12-01T23:24:33.666Z,16.73
2022-12-01T23:27:00.222Z,16.13
2022-12-01T23:29:26.400Z,15.40
2022-12-01T23:31:52.591Z,16.83
2022-12-01T23:34:18.787Z,16.52
2022-12-01T23:36:44.927Z,17.10
2022-12-01T23:39:11.029Z,16.70
2022-12-01T23:41:37.186Z,14.88
2022-12-01T23:44:03.287Z,15.43
2022-12-01T23:46:29.445Z,15.98
2022-12-01T23:48:55.617Z,16.50
2022-12-01T23:51:21.767Z,15.35
2022-12-01T23:53:47.876Z,16.42
2022-12-01T23:56:13.985Z,16.17
2022-12-01T23:58:40.104Z,17.08
